Time;durP1;ratioP1;P1;durP2;ratioP2;P2;SDS_P1;SDS_P2;PMS_P1;PMS_P2;Temp;Humidity;BMP_temperature;BMP_pressure;BME280_temperature;BME280_humidity;BME280_pressure;Samples;Min_cycle;Max_cycle;Signal;HPM_P1;HPM_P2
2021/10/29 00:01:03;;;;;;;37.40;18.35;;;8.20;99.90;;;;;;5014910;28;20069;-63
2021/10/29 00:03:29;;;;;;;32.83;18.10;;;8.10;99.90;;;;;;5016367;28;20079;-63
2021/10/29 00:05:54;;;;;;;40.38;18.40;;;8.10;99.90;;;;;;5010542;28;20263;-63
2021/10/29 00:08:20;;;;;;;31.85;17.77;;;8.00;99.90;;;;;;5004991;28;20037;-63
2021/10/29 00:10:45;;;;;;;32.72;17.83;;;8.00;99.90;;;;;;5001247;28;20034;-63
2021/10/29 00:13:11;;;;;;;31.50;17.70;;;8.00;99.90;;;;;;4986296;28;20118;-63
2021/10/29 00:15:38;;;;;;;34.47;17.55;;;8.00;99.90;;;;;;5009774;28;20037;-63
2021/10/29 00:18:03;;;;;;;34.40;18.13;;;7.90;99.90;;;;;;5014389;28;20791;-63
2021/10/29 00:20:29;;;;;;;29.90;17.17;;;7.90;99.90;;;;;;5017479;28;20117;-63
2021/10/29 00:22:54;;;;;;;32.83;17.67;;;7.80;99.90;;;;;;5013426;28;20029;-63
2021/10/29 00:25:20;;;;;;;35.75;17.92;;;7.80;99.90;;;;;;5006749;28;20781;-63
2021/10/29 00:27:45;;;;;;;38.40;19.30;;;7.80;99.90;;;;;;5002144;28;20041;-63
2021/10/29 00:30:11;;;;;;;28.50;16.35;;;7.70;99.90;;;;;;5000935;28;20060;-63
2021/10/29 00:32:36;;;;;;;31.95;17.42;;;7.70;99.90;;;;;;5006603;28;20117;-63
2021/10/29 00:35:02;;;;;;;33.25;18.05;;;7.70;99.90;;;;;;5011466;28;20037;-62
2021/10/29 00:37:27;;;;;;;31.20;17.65;;;7.70;99.90;;;;;;5014835;28;20065;-63
2021/10/29 00:39:52;;;;;;;31.30;16.92;;;7.60;99.90;;;;;;5014899;28;20056;-62
2021/10/29 00:42:18;;;;;;;34.20;17.83;;;7.60;99.90;;;;;;5008867;28;20030;-63
2021/10/29 00:44:44;;;;;;;31.08;16.67;;;7.60;99.90;;;;;;5005495;28;20414;-62
2021/10/29 00:47:09;;;;;;;33.40;18.70;;;7.60;99.90;;;;;;4998347;28;20037;-63
2021/10/29 00:49:35;;;;;;;32.72;17.88;;;7.60;99.90;;;;;;5003890;28;20045;-64
2021/10/29 00:52:00;;;;;;;36.03;17.95;;;7.60;99.90;;;;;;5007868;28;20139;-63
2021/10/29 00:54:26;;;;;;;34.60;18.70;;;7.60;99.90;;;;;;5013110;28;20118;-63
2021/10/29 00:56:51;;;;;;;32.45;17.65;;;7.60;99.90;;;;;;5018092;28;20820;-62
2021/10/29 00:59:20;;;;;;;34.70;17.73;;;7.60;99.90;;;;;;5006434;28;20029;-62
2021/10/29 01:01:46;;;;;;;37.08;18.90;;;7.60;99.90;;;;;;5010408;28;20084;-63
2021/10/29 01:04:11;;;;;;;32.33;17.60;;;7.60;99.90;;;;;;5015739;28;20132;-63
2021/10/29 01:06:37;;;;;;;32.13;17.85;;;7.50;99.90;;;;;;5015394;28;20819;-63
2021/10/29 01:09:02;;;;;;;32.38;18.30;;;7.60;99.90;;;;;;5011843;28;20041;-63
2021/10/29 01:11:27;;;;;;;34.22;18.63;;;7.50;99.90;;;;;;5007506;28;20041;-63
2021/10/29 01:13:53;;;;;;;35.63;18.10;;;7.40;99.90;;;;;;5000635;28;20026;-69
2021/10/29 01:16:18;;;;;;;32.35;17.15;;;7.50;99.90;;;;;;5005347;28;20375;-70
2021/10/29 01:18:44;;;;;;;32.08;17.75;;;7.50;99.90;;;;;;5009692;28;20108;-70
2021/10/29 01:21:09;;;;;;;28.35;16.70;;;7.40;99.90;;;;;;5014923;28;20037;-70
2021/10/29 01:23:35;;;;;;;33.55;18.58;;;7.40;99.90;;;;;;5017384;28;20136;-70
2021/10/29 01:26:00;;;;;;;35.38;18.40;;;7.40;99.90;;;;;;5014190;28;20037;-70
2021/10/29 01:28:26;;;;;;;31.83;17.92;;;7.30;99.90;;;;;;5009304;28;20068;-70
2021/10/29 01:30:51;;;;;;;33.13;17.17;;;7.30;99.90;;;;;;5002672;28;20026;-70
2021/10/29 01:33:17;;;;;;;39.08;18.58;;;7.20;99.90;;;;;;4999750;28;20072;-70
2021/10/29 01:35:42;;;;;;;38.72;18.35;;;7.10;99.90;;;;;;5003678;28;20596;-70
2021/10/29 01:38:07;;;;;;;35.45;18.33;;;7.10;99.90;;;;;;5006831;28;20403;-70
2021/10/29 01:40:33;;;;;;;30.77;17.60;;;7.10;99.90;;;;;;5002886;28;20025;-70
2021/10/29 01:42:58;;;;;;;35.13;18.60;;;7.20;99.90;;;;;;4999012;28;20037;-70
2021/10/29 01:45:24;;;;;;;36.75;19.00;;;7.10;99.90;;;;;;5005008;28;20041;-69
2021/10/29 01:47:49;;;;;;;32.10;17.42;;;7.00;99.90;;;;;;5008315;28;20387;-69
2021/10/29 01:50:15;;;;;;;33.75;18.00;;;7.00;99.90;;;;;;5014451;28;20061;-69
2021/10/29 01:52:40;;;;;;;33.35;18.63;;;7.00;99.90;;;;;;5014865;28;20037;-69
2021/10/29 01:55:06;;;;;;;33.75;18.65;;;7.00;99.90;;;;;;5004514;28;20042;-69
2021/10/29 01:57:31;;;;;;;45.92;22.00;;;6.90;99.90;;;;;;5009038;28;20501;-70
2021/10/29 01:59:57;;;;;;;35.38;18.88;;;6.80;99.90;;;;;;5016336;28;20103;-70
2021/10/29 02:02:22;;;;;;;37.97;19.77;;;6.80;99.90;;;;;;5013795;28;20092;-70
2021/10/29 02:04:47;;;;;;;35.88;19.13;;;6.70;99.90;;;;;;5009462;28;20584;-70
2021/10/29 02:07:13;;;;;;;39.17;20.30;;;6.60;99.90;;;;;;5002970;28;20132;-70
2021/10/29 02:09:38;;;;;;;33.38;18.73;;;6.50;99.90;;;;;;4998072;28;20034;-70
2021/10/29 02:12:04;;;;;;;43.60;19.95;;;6.60;99.90;;;;;;5002574;28;20044;-70
2021/10/29 02:14:29;;;;;;;35.63;19.67;;;6.50;99.90;;;;;;5007625;28;20960;-70
2021/10/29 02:16:55;;;;;;;38.08;19.58;;;6.40;99.90;;;;;;5011596;28;20038;-70
2021/10/29 02:19:21;;;;;;;36.58;20.25;;;6.50;99.90;;;;;;5014629;28;20099;-70
2021/10/29 02:21:46;;;;;;;43.67;19.98;;;6.40;99.90;;;;;;5012061;28;20124;-70
2021/10/29 02:24:12;;;;;;;43.05;21.08;;;6.40;99.90;;;;;;5006508;28;20498;-69
2021/10/29 02:26:38;;;;;;;38.95;20.85;;;6.40;99.90;;;;;;5000766;28;20205;-70
2021/10/29 02:29:03;;;;;;;43.00;21.35;;;6.40;99.90;;;;;;4998309;28;20041;-70
2021/10/29 02:31:29;;;;;;;39.90;21.38;;;6.40;99.90;;;;;;5003458;28;20034;-70
2021/10/29 02:33:55;;;;;;;42.38;21.42;;;6.40;99.90;;;;;;5010263;28;20402;-70
2021/10/29 02:36:20;;;;;;;42.35;20.13;;;6.40;99.90;;;;;;5015254;28;20040;-70
2021/10/29 02:38:46;;;;;;;38.33;20.63;;;6.40;99.90;;;;;;5013627;28;20033;-70
2021/10/29 02:41:11;;;;;;;40.05;20.20;;;6.40;99.90;;;;;;5007827;28;20969;-70
2021/10/29 02:43:37;;;;;;;38.47;20.67;;;6.30;99.90;;;;;;5005481;28;20804;-69
2021/10/29 02:46:02;;;;;;;41.08;20.75;;;6.40;99.90;;;;;;5002975;28;20045;-69
2021/10/29 02:48:28;;;;;;;40.65;21.60;;;6.20;99.90;;;;;;5006020;28;20033;-70
2021/10/29 02:50:53;;;;;;;44.78;22.15;;;6.20;99.90;;;;;;5010640;28;20043;-70
2021/10/29 02:53:19;;;;;;;38.80;20.98;;;6.40;99.90;;;;;;5017172;28;20041;-69
2021/10/29 02:55:44;;;;;;;39.22;21.77;;;6.20;99.90;;;;;;5010082;28;20052;-69
2021/10/29 02:58:10;;;;;;;38.30;20.52;;;6.10;99.90;;;;;;5006056;28;20029;-70
2021/10/29 03:00:35;;;;;;;40.60;21.48;;;6.10;99.90;;;;;;5012745;28;20824;-70
2021/10/29 03:03:01;;;;;;;40.58;21.77;;;6.00;99.90;;;;;;5017166;28;20084;-70
2021/10/29 03:05:26;;;;;;;44.28;23.70;;;6.00;99.90;;;;;;5019603;28;20112;-71
2021/10/29 03:07:52;;;;;;;42.85;21.50;;;6.00;99.90;;;;;;5012256;28;20932;-70
2021/10/29 03:10:17;;;;;;;43.42;22.52;;;5.90;99.90;;;;;;5007342;28;20052;-70
2021/10/29 03:12:43;;;;;;;44.78;21.63;;;5.90;99.90;;;;;;5004271;28;20057;-70
2021/10/29 03:15:09;;;;;;;41.10;21.40;;;5.80;99.90;;;;;;5004410;28;20552;-70
2021/10/29 03:17:34;;;;;;;42.70;20.95;;;5.80;99.90;;;;;;5009650;28;20030;-70
2021/10/29 03:20:00;;;;;;;43.20;22.23;;;5.70;99.90;;;;;;5014475;28;20037;-70
2021/10/29 03:22:25;;;;;;;48.15;23.48;;;5.70;99.90;;;;;;5021756;28;20026;-70
2021/10/29 03:24:51;;;;;;;51.03;24.05;;;5.70;99.90;;;;;;5019104;28;20567;-70
2021/10/29 03:27:18;;;;;;;44.90;21.90;;;5.60;99.90;;;;;;5011855;28;20069;-70
2021/10/29 03:29:44;;;;;;;46.80;22.67;;;5.50;99.90;;;;;;5008837;28;20506;-70
2021/10/29 03:32:09;;;;;;;45.83;23.00;;;5.50;99.90;;;;;;5013175;28;20034;-70
2021/10/29 03:34:35;;;;;;;46.42;23.85;;;5.50;99.90;;;;;;5005820;28;20040;-70
2021/10/29 03:37:03;;;;;;;55.60;24.60;;;5.50;99.90;;;;;;5011760;28;20041;-70
2021/10/29 03:39:33;;;;;;;53.80;23.75;;;5.40;99.90;;;;;;5016736;28;20137;-70
2021/10/29 03:42:01;;;;;;;50.80;24.90;;;5.40;99.90;;;;;;5018751;28;20145;-70
2021/10/29 03:46:55;;;;;;;49.85;22.95;;;5.40;99.90;;;;;;5009302;28;20100;-70
2021/10/29 03:49:42;;;;;;;49.60;22.67;;;5.30;99.90;;;;;;5003561;28;20490;-70
2021/10/29 03:52:17;;;;;;;48.80;23.83;;;5.20;99.90;;;;;;5004444;28;20041;-70
2021/10/29 03:54:46;;;;;;;55.83;26.43;;;5.20;99.90;;;;;;5008275;28;20563;-70
2021/10/29 03:57:24;;;;;;;63.08;26.05;;;5.20;99.90;;;;;;5014996;28;20034;-70
2021/10/29 03:59:50;;;;;;;48.97;23.35;;;5.20;99.90;;;;;;5019333;28;20034;-70
2021/10/29 04:02:15;;;;;;;57.42;25.45;;;5.20;99.90;;;;;;5014875;28;20030;-70
2021/10/29 04:04:41;;;;;;;55.83;25.98;;;5.10;99.90;;;;;;5009404;28;20865;-70
2021/10/29 04:07:06;;;;;;;50.70;24.17;;;5.10;99.90;;;;;;5003876;28;20033;-70
2021/10/29 04:09:32;;;;;;;53.33;25.30;;;5.00;99.90;;;;;;5001916;28;20029;-70
2021/10/29 04:11:57;;;;;;;49.38;23.83;;;5.00;99.90;;;;;;5007282;28;20472;-70
2021/10/29 04:14:27;;;;;;;53.45;24.70;;;4.90;99.90;;;;;;5012290;28;20076;-70
2021/10/29 04:16:53;;;;;;;49.50;23.13;;;4.90;99.90;;;;;;5016209;28;20033;-70
2021/10/29 04:19:18;;;;;;;54.80;25.52;;;4.90;99.90;;;;;;5016862;28;20025;-70
2021/10/29 04:21:44;;;;;;;53.97;23.95;;;4.90;99.90;;;;;;5010974;28;20521;-70
2021/10/29 04:24:09;;;;;;;52.83;25.05;;;4.80;99.90;;;;;;5006837;28;20044;-70
2021/10/29 04:26:36;;;;;;;61.30;27.33;;;4.80;99.90;;;;;;5002000;28;20448;-70
2021/10/29 04:29:02;;;;;;;61.83;25.30;;;4.80;99.90;;;;;;5004075;28;20576;-70
2021/10/29 04:31:30;;;;;;;60.17;25.67;;;4.80;99.90;;;;;;5009607;28;20049;-70
2021/10/29 04:33:56;;;;;;;61.10;25.65;;;4.70;99.90;;;;;;5004619;28;20063;-70
2021/10/29 04:36:22;;;;;;;59.45;25.90;;;4.90;99.90;;;;;;5000583;28;20033;-69
2021/10/29 04:38:47;;;;;;;55.53;25.85;;;4.60;99.90;;;;;;5004997;28;20084;-69
2021/10/29 04:41:13;;;;;;;59.53;26.17;;;4.50;99.90;;;;;;5011461;28;20802;-70
2021/10/29 04:43:38;;;;;;;55.92;24.95;;;4.60;99.90;;;;;;5014179;28;20033;-69
2021/10/29 04:46:04;;;;;;;56.17;25.65;;;4.60;99.90;;;;;;5001285;28;20815;-69
2021/10/29 04:48:30;;;;;;;55.00;25.63;;;4.50;99.90;;;;;;5005450;28;20981;-70
2021/10/29 04:50:55;;;;;;;59.28;25.55;;;4.40;99.90;;;;;;5012529;28;20072;-70
2021/10/29 04:53:21;;;;;;;57.33;24.63;;;4.50;99.90;;;;;;4998850;28;20033;-70
2021/10/29 04:55:46;;;;;;;67.82;26.88;;;4.40;99.90;;;;;;5016324;28;20579;-70
2021/10/29 04:58:12;;;;;;;64.47;25.55;;;4.40;99.90;;;;;;5007270;28;20033;-70
2021/10/29 05:00:37;;;;;;;65.57;28.08;;;4.40;99.90;;;;;;5003901;28;20482;-68
2021/10/29 05:03:06;;;;;;;60.08;27.63;;;4.40;99.90;;;;;;5000008;28;20046;-68
2021/10/29 05:05:31;;;;;;;68.22;29.15;;;4.40;99.90;;;;;;5002920;28;20045;-68
2021/10/29 05:07:57;;;;;;;63.80;27.23;;;4.40;99.90;;;;;;5008573;28;20048;-68
2021/10/29 05:10:22;;;;;;;61.00;28.02;;;4.40;99.90;;;;;;5014385;28;20034;-68
2021/10/29 05:12:48;;;;;;;66.15;27.58;;;4.40;99.90;;;;;;5007792;28;20758;-67
2021/10/29 05:15:13;;;;;;;62.65;25.58;;;4.40;99.90;;;;;;5012228;28;20049;-67
2021/10/29 05:17:41;;;;;;;59.00;27.23;;;4.40;99.90;;;;;;4998703;28;20505;-67
2021/10/29 05:20:07;;;;;;;61.80;27.60;;;4.40;99.90;;;;;;5006500;28;20022;-68
2021/10/29 05:22:32;;;;;;;65.07;28.10;;;4.30;99.90;;;;;;5007504;28;20045;-67
2021/10/29 05:24:58;;;;;;;60.50;26.70;;;4.30;99.90;;;;;;5009321;28;20037;-67
2021/10/29 05:27:23;;;;;;;65.82;27.38;;;4.30;99.90;;;;;;5009548;28;20462;-67
2021/10/29 05:29:49;;;;;;;64.63;26.88;;;4.30;99.90;;;;;;5009968;28;20042;-68
2021/10/29 05:32:14;;;;;;;69.05;28.00;;;4.30;99.90;;;;;;5019110;28;20098;-68
2021/10/29 05:34:40;;;;;;;64.80;28.13;;;4.30;99.90;;;;;;5008248;28;20105;-67
2021/10/29 05:37:06;;;;;;;66.65;28.20;;;4.40;99.90;;;;;;5011179;28;20543;-68
2021/10/29 05:39:32;;;;;;;65.00;28.50;;;4.40;99.90;;;;;;5006069;28;20693;-67
2021/10/29 05:41:57;;;;;;;61.92;27.05;;;4.40;99.90;;;;;;5001138;28;20405;-67
2021/10/29 05:44:23;;;;;;;71.45;28.77;;;4.40;99.90;;;;;;5005668;28;20717;-67
2021/10/29 05:46:48;;;;;;;62.63;25.95;;;4.30;99.90;;;;;;5005295;28;20047;-67
2021/10/29 05:49:15;;;;;;;70.72;28.48;;;4.30;99.90;;;;;;5013167;28;20044;-67
2021/10/29 05:51:45;;;;;;;67.50;29.25;;;4.30;99.90;;;;;;5005496;28;20033;-67
2021/10/29 05:54:34;;;;;;;64.95;29.30;;;4.40;99.90;;;;;;5007133;28;20042;-67
2021/10/29 05:56:58;;;;;;;69.80;29.58;;;4.40;99.90;;;;;;5003786;28;20037;-67
2021/10/29 05:59:24;;;;;;;69.45;29.48;;;4.50;99.90;;;;;;5012261;28;20479;-67
2021/10/29 06:01:50;;;;;;;69.13;29.02;;;4.50;99.90;;;;;;5009899;28;20506;-67
2021/10/29 06:04:15;;;;;;;65.05;27.55;;;4.50;99.90;;;;;;5006593;28;20038;-67
2021/10/29 06:06:41;;;;;;;69.15;29.73;;;4.50;99.90;;;;;;5004466;28;20493;-67
2021/10/29 06:09:06;;;;;;;68.80;28.83;;;4.50;99.90;;;;;;5000226;28;20580;-67
2021/10/29 06:11:32;;;;;;;63.17;27.52;;;4.50;99.90;;;;;;5002341;28;20034;-67
2021/10/29 06:13:58;;;;;;;69.90;29.60;;;4.50;99.90;;;;;;5007407;28;20080;-67
2021/10/29 06:16:23;;;;;;;64.35;27.83;;;4.50;99.90;;;;;;4999767;28;20087;-68
2021/10/29 06:18:49;;;;;;;69.38;28.10;;;4.40;99.90;;;;;;5013190;28;20029;-68
2021/10/29 06:21:18;;;;;;;68.93;28.77;;;4.50;99.90;;;;;;5007432;28;20038;-67
2021/10/29 06:24:17;;;;;;;70.05;28.67;;;4.40;99.90;;;;;;5008955;28;20018;-68
2021/10/29 06:27:00;;;;;;;65.90;29.20;;;4.50;99.90;;;;;;5015025;28;20049;-68
2021/10/29 06:29:23;;;;;;;65.47;28.10;;;4.50;99.90;;;;;;5005663;28;20111;-68
2021/10/29 06:31:49;;;;;;;66.03;27.77;;;4.50;99.90;;;;;;5008954;28;20029;-68
2021/10/29 06:34:15;;;;;;;65.40;28.70;;;4.50;99.90;;;;;;5007448;28;20135;-68
2021/10/29 06:36:40;;;;;;;68.22;29.92;;;4.50;99.90;;;;;;5008214;28;20469;-68
2021/10/29 06:39:06;;;;;;;66.72;27.95;;;4.60;99.90;;;;;;5007751;28;20267;-68
2021/10/29 06:41:31;;;;;;;64.57;27.70;;;4.60;99.90;;;;;;5002611;28;20612;-68
2021/10/29 06:48:54;;;;;;;66.20;27.15;;;4.70;99.90;;;;;;5006838;28;20095;-67
2021/10/29 06:59:56;;;;;;;66.70;29.48;;;5.00;99.90;;;;;;5003541;28;20041;-67
2021/10/29 07:05:29;;;;;;;59.83;27.65;;;5.10;99.90;;;;;;5009788;28;20462;-67
2021/10/29 07:41:05;;;;;;;41.42;20.05;;;7.00;99.90;;;;;;5008937;28;20037;-68
2021/10/29 07:43:38;;;;;;;32.70;18.33;;;7.40;99.90;;;;;;5008349;28;20036;-67
2021/10/29 07:46:03;;;;;;;37.70;18.05;;;7.60;99.90;;;;;;5004211;28;20048;-68
2021/10/29 07:48:30;;;;;;;31.23;17.05;;;7.80;99.90;;;;;;5000516;28;20034;-67
2021/10/29 07:50:55;;;;;;;41.70;21.77;;;8.10;99.90;;;;;;5005776;28;20556;-67
2021/10/29 07:53:21;;;;;;;31.38;17.52;;;8.30;99.90;;;;;;5006866;28;20036;-67
2021/10/29 07:55:46;;;;;;;38.55;21.38;;;8.30;99.90;;;;;;5015504;28;20593;-68
2021/10/29 07:58:12;;;;;;;36.60;17.98;;;8.50;99.90;;;;;;5015263;28;20037;-68
2021/10/29 08:00:37;;;;;;;30.33;16.77;;;8.70;99.90;;;;;;5006055;28;20050;-68
2021/10/29 08:03:05;;;;;;;39.53;17.02;;;8.90;99.90;;;;;;5006882;28;20036;-68
2021/10/29 08:05:31;;;;;;;28.13;16.45;;;8.90;99.90;;;;;;5013227;28;20037;-68
2021/10/29 08:07:56;;;;;;;31.52;16.90;;;8.60;99.90;;;;;;5001836;28;20617;-68
2021/10/29 08:10:22;;;;;;;32.38;16.77;;;9.30;99.90;;;;;;5005232;28;20044;-68
2021/10/29 08:12:47;;;;;;;28.73;16.60;;;9.40;99.90;;;;;;5005200;28;20034;-68
2021/10/29 08:15:13;;;;;;;28.55;16.50;;;9.30;99.90;;;;;;5012905;28;20037;-68
2021/10/29 08:17:39;;;;;;;33.65;16.45;;;9.60;99.90;;;;;;5007611;28;20033;-68
2021/10/29 08:20:05;;;;;;;34.65;17.58;;;9.60;99.90;;;;;;5004473;28;20042;-68
2021/10/29 08:22:31;;;;;;;28.80;16.77;;;9.40;99.90;;;;;;5007773;28;20140;-68
2021/10/29 08:24:56;;;;;;;26.45;15.95;;;9.40;99.90;;;;;;5012731;28;20044;-69
2021/10/29 08:27:22;;;;;;;30.55;17.08;;;9.30;99.90;;;;;;5006340;28;20852;-68
2021/10/29 08:29:47;;;;;;;29.38;16.48;;;9.50;99.90;;;;;;5007341;28;20040;-68
2021/10/29 08:32:13;;;;;;;27.60;16.25;;;9.80;99.90;;;;;;5013285;28;20037;-68
2021/10/29 08:34:38;;;;;;;28.20;15.88;;;10.00;99.90;;;;;;5001987;28;20061;-69
2021/10/29 08:37:04;;;;;;;27.95;16.33;;;10.00;99.90;;;;;;5005483;28;20414;-68
2021/10/29 08:39:30;;;;;;;25.73;15.35;;;10.20;99.90;;;;;;5008006;28;20064;-68
2021/10/29 08:41:55;;;;;;;27.77;16.23;;;10.40;99.90;;;;;;5002041;28;20021;-68
2021/10/29 08:44:21;;;;;;;33.35;17.45;;;10.50;99.90;;;;;;5000726;28;20056;-69
2021/10/29 08:46:47;;;;;;;32.03;16.90;;;10.50;99.90;;;;;;5004129;28;20044;-69
2021/10/29 08:49:12;;;;;;;27.23;14.98;;;10.60;99.90;;;;;;5011895;28;20531;-68
2021/10/29 08:51:38;;;;;;;26.92;15.00;;;10.60;99.90;;;;;;5006455;28;20030;-68
2021/10/29 08:54:03;;;;;;;29.10;15.25;;;10.70;99.90;;;;;;5010485;28;20044;-69
2021/10/29 08:56:29;;;;;;;27.80;15.45;;;10.60;99.90;;;;;;5008588;28;20033;-68
2021/10/29 08:58:54;;;;;;;30.55;15.25;;;10.60;99.90;;;;;;5004453;28;20109;-69
2021/10/29 09:01:20;;;;;;;26.67;14.80;;;10.60;99.90;;;;;;4999436;28;20025;-69
2021/10/29 09:03:48;;;;;;;26.05;15.23;;;10.60;99.90;;;;;;5010766;28;20113;-69
2021/10/29 09:09:14;;;;;;;28.70;15.82;;;10.80;99.90;;;;;;5010775;28;20061;-68
2021/10/29 09:11:58;;;;;;;28.08;16.50;;;10.90;99.90;;;;;;5014931;28;20052;-68
2021/10/29 09:17:24;;;;;;;28.80;14.05;;;11.30;99.90;;;;;;5002466;28;20105;-68
2021/10/29 09:33:27;;;;;;;24.73;12.98;;;11.80;99.90;;;;;;5009088;28;20088;-62
2021/10/29 09:35:53;;;;;;;27.05;14.80;;;12.10;99.90;;;;;;5007289;28;20030;-63
2021/10/29 09:38:18;;;;;;;21.38;13.23;;;12.20;99.90;;;;;;5001959;28;20030;-63
2021/10/29 09:41:03;;;;;;;20.92;12.30;;;12.30;99.90;;;;;;5007675;28;20045;-63
2021/10/29 09:43:55;;;;;;;21.40;12.35;;;12.50;99.90;;;;;;5002506;28;20121;-64
2021/10/29 09:46:21;;;;;;;20.05;11.85;;;12.60;99.90;;;;;;5006800;28;20120;-63
2021/10/29 09:48:50;;;;;;;21.63;12.73;;;12.70;99.90;;;;;;5007029;28;20029;-63
2021/10/29 09:51:16;;;;;;;22.23;12.95;;;12.70;99.90;;;;;;5004969;28;20034;-63
2021/10/29 09:54:02;;;;;;;19.45;11.68;;;12.60;99.90;;;;;;5001767;28;20129;-63
2021/10/29 09:58:53;;;;;;;17.00;10.35;;;12.90;99.90;;;;;;5011210;28;20037;-63
2021/10/29 10:01:19;;;;;;;20.85;11.70;;;12.90;99.90;;;;;;5009085;28;20080;-63
2021/10/29 10:03:44;;;;;;;19.45;11.48;;;12.90;99.90;;;;;;5013332;28;20073;-63
2021/10/29 10:06:10;;;;;;;22.00;11.70;;;13.00;99.90;;;;;;5004388;28;20033;-63
2021/10/29 10:08:35;;;;;;;18.27;10.38;;;13.00;99.90;;;;;;5005758;28;20052;-63
2021/10/29 10:11:01;;;;;;;18.20;10.13;;;13.20;99.90;;;;;;5010843;28;20044;-63
2021/10/29 10:13:27;;;;;;;17.05;9.88;;;13.30;99.90;;;;;;5008714;28;20045;-63
2021/10/29 10:15:52;;;;;;;17.05;10.20;;;13.30;99.90;;;;;;5010648;28;20041;-63
2021/10/29 10:18:18;;;;;;;16.15;9.93;;;13.50;99.90;;;;;;5003690;28;20030;-63
2021/10/29 10:20:44;;;;;;;16.52;9.13;;;13.50;99.90;;;;;;5009002;28;20494;-63
2021/10/29 10:23:09;;;;;;;15.90;8.95;;;13.70;99.90;;;;;;4987903;28;20729;-63
2021/10/29 10:25:44;;;;;;;15.23;9.43;;;14.00;99.90;;;;;;5008597;28;20398;-63
2021/10/29 10:41:53;;;;;;;16.15;8.95;;;14.30;99.90;;;;;;5014628;28;20041;-63
2021/10/29 10:44:32;;;;;;;17.65;9.55;;;14.50;99.90;;;;;;5013185;28;20034;-63
2021/10/29 10:46:58;;;;;;;16.20;9.38;;;14.50;99.90;;;;;;5005964;28;20052;-63
2021/10/29 10:49:24;;;;;;;14.18;8.68;;;14.50;99.90;;;;;;5001586;28;20033;-62
2021/10/29 10:51:53;;;;;;;14.95;8.40;;;14.70;99.90;;;;;;5002677;28;20549;-63
2021/10/29 10:56:51;;;;;;;16.58;8.55;;;15.00;99.90;;;;;;5008081;28;20029;-63
2021/10/29 10:59:28;;;;;;;16.20;8.43;;;14.90;99.90;;;;;;5012252;28;20037;-63
2021/10/29 11:07:14;;;;;;;16.40;8.50;;;15.10;99.90;;;;;;5008067;28;20076;-62
2021/10/29 11:12:23;;;;;;;16.00;9.05;;;15.00;99.90;;;;;;5005203;28;20498;-65
2021/10/29 11:14:49;;;;;;;18.02;7.68;;;15.00;99.90;;;;;;5011359;28;20026;-65
2021/10/29 11:17:14;;;;;;;16.10;9.05;;;15.20;99.90;;;;;;5016826;28;20037;-65
2021/10/29 11:19:44;;;;;;;16.38;8.68;;;15.30;99.90;;;;;;5018348;28;20072;-65
2021/10/29 11:22:13;;;;;;;18.13;8.85;;;15.30;99.90;;;;;;5007702;28;20030;-63
2021/10/29 11:24:40;;;;;;;13.90;8.50;;;15.30;99.90;;;;;;5010539;28;20037;-63
2021/10/29 11:27:06;;;;;;;21.60;10.57;;;15.40;99.90;;;;;;5002240;28;20029;-62
2021/10/29 11:29:32;;;;;;;13.73;8.85;;;15.60;99.90;;;;;;5003958;28;20029;-64
2021/10/29 11:31:58;;;;;;;22.92;13.00;;;15.40;99.90;;;;;;5008247;28;20378;-62
2021/10/29 11:34:24;;;;;;;15.65;8.57;;;15.20;99.90;;;;;;5013588;28;20033;-63
2021/10/29 11:36:51;;;;;;;19.88;10.63;;;15.30;99.90;;;;;;5006245;28;20034;-63
2021/10/29 11:39:16;;;;;;;13.32;8.18;;;15.50;99.90;;;;;;5015901;28;20059;-63
2021/10/29 11:41:41;;;;;;;20.48;12.02;;;15.80;99.90;;;;;;5010694;28;20029;-63
2021/10/29 11:44:07;;;;;;;16.35;8.85;;;15.60;99.50;;;;;;5003306;28;20140;-63
2021/10/29 11:46:33;;;;;;;15.35;7.25;;;15.70;99.60;;;;;;5001222;28;20034;-63
2021/10/29 11:48:59;;;;;;;14.43;8.27;;;15.80;99.50;;;;;;5004983;28;20094;-64
2021/10/29 11:51:24;;;;;;;14.00;8.05;;;15.30;99.70;;;;;;5006030;28;20863;-63
2021/10/29 11:54:33;;;;;;;15.18;8.50;;;15.40;99.90;;;;;;5003404;28;20041;-63
2021/10/29 11:56:46;;;;;;;12.93;7.97;;;15.50;99.90;;;;;;4999756;28;20653;-63
2021/10/29 11:59:25;;;;;;;14.90;8.68;;;15.50;99.90;;;;;;5007360;28;20102;-63
2021/10/29 12:07:19;;;;;;;13.73;8.05;;;16.10;98.60;;;;;;5001053;28;20049;-63
2021/10/29 12:09:44;;;;;;;15.02;8.27;;;16.30;99.10;;;;;;5009104;28;20037;-64
2021/10/29 12:12:16;;;;;;;11.75;7.88;;;16.20;99.00;;;;;;5015034;28;20111;-63
2021/10/29 12:14:41;;;;;;;12.02;7.47;;;16.20;98.50;;;;;;5015786;28;20160;-63
2021/10/29 12:17:07;;;;;;;13.63;7.28;;;16.10;99.00;;;;;;5010246;28;20030;-63
2021/10/29 12:19:32;;;;;;;13.48;7.75;;;16.40;98.30;;;;;;5007820;28;20398;-63
2021/10/29 12:22:02;;;;;;;14.43;8.32;;;16.60;98.40;;;;;;5001188;28;20030;-63
2021/10/29 12:24:28;;;;;;;15.73;7.28;;;16.70;97.30;;;;;;5011981;28;20042;-64
2021/10/29 12:26:55;;;;;;;12.73;7.65;;;16.70;97.50;;;;;;5004821;28;20036;-63
2021/10/29 12:29:22;;;;;;;15.43;7.55;;;16.80;97.70;;;;;;5003029;28;20046;-63
2021/10/29 12:32:16;;;;;;;21.40;7.82;;;16.80;97.60;;;;;;4999691;28;20070;-63
2021/10/29 13:03:57;;;;;;;16.65;10.63;;;16.10;99.10;;;;;;5007729;28;20041;-63
2021/10/29 13:06:22;;;;;;;20.27;11.07;;;16.20;98.90;;;;;;5014220;28;20154;-63
2021/10/29 13:08:48;;;;;;;19.88;10.80;;;16.00;98.90;;;;;;5011017;28;20549;-63
2021/10/29 13:11:14;;;;;;;17.52;10.80;;;15.90;99.10;;;;;;5006266;28;20491;-63
2021/10/29 13:13:42;;;;;;;20.23;10.75;;;15.80;99.80;;;;;;5010148;28;20160;-63
2021/10/29 13:16:11;;;;;;;15.73;9.52;;;15.60;99.20;;;;;;5015166;28;20127;-63
2021/10/29 13:19:21;;;;;;;18.15;10.75;;;15.80;99.90;;;;;;5015084;28;20103;-63
2021/10/29 13:22:20;;;;;;;17.90;10.65;;;15.90;99.40;;;;;;5009743;28;20668;-63
2021/10/29 13:55:59;;;;;;;14.20;8.80;;;16.10;98.30;;;;;;5009599;28;20068;-63
2021/10/29 14:01:21;;;;;;;12.60;8.45;;;16.20;98.80;;;;;;5001345;28;20034;-63
2021/10/29 14:31:07;;;;;;;23.25;12.05;;;15.00;99.90;;;;;;5015761;28;20076;-62
2021/10/29 14:33:36;;;;;;;19.83;11.30;;;14.90;99.90;;;;;;5009677;28;20037;-63
2021/10/29 14:36:03;;;;;;;17.70;11.15;;;14.70;99.90;;;;;;5005196;28;20550;-63
2021/10/29 14:38:43;;;;;;;18.98;11.02;;;14.60;99.90;;;;;;5005609;28;20390;-63
2021/10/29 14:41:14;;;;;;;18.67;11.25;;;14.50;99.90;;;;;;5017475;28;20512;-63
2021/10/29 14:44:25;;;;;;;18.80;12.07;;;14.50;99.90;;;;;;5010726;28;20033;-63
2021/10/29 14:46:42;;;;;;;20.90;11.27;;;14.50;99.90;;;;;;5012262;28;20788;-63
2021/10/29 14:49:26;;;;;;;17.17;11.48;;;14.40;99.90;;;;;;5002562;28;20144;-63
2021/10/29 15:00:29;;;;;;;29.20;15.25;;;14.00;99.90;;;;;;5014291;28;20033;-62
2021/10/29 15:03:22;;;;;;;26.42;15.40;;;13.90;99.90;;;;;;5009619;28;20676;-62
2021/10/29 15:29:58;;;;;;;38.80;22.73;;;12.40;99.90;;;;;;5006963;28;20041;-62
2021/10/29 15:45:52;;;;;;;31.13;19.40;;;11.70;99.90;;;;;;5011047;28;20033;-62
2021/10/29 15:48:22;;;;;;;31.83;20.98;;;11.60;99.90;;;;;;5009711;28;20084;-62
2021/10/29 15:50:47;;;;;;;40.92;23.52;;;11.50;99.90;;;;;;5005398;28;20053;-62
2021/10/29 15:53:14;;;;;;;44.30;25.88;;;11.30;99.90;;;;;;5009274;28;20029;-62
2021/10/29 15:55:45;;;;;;;68.85;36.72;;;11.20;99.90;;;;;;5006749;28;20055;-63
2021/10/29 16:01:09;;;;;;;97.95;47.65;;;11.00;99.90;;;;;;5009915;28;20901;-62
2021/10/29 16:17:23;;;;;;;49.28;27.92;;;10.40;99.90;;;;;;5003796;28;20030;-62
2021/10/29 16:19:49;;;;;;;45.40;26.60;;;10.30;99.90;;;;;;5013673;28;20033;-63
2021/10/29 16:22:22;;;;;;;47.10;27.50;;;10.20;99.90;;;;;;5007206;28;20033;-63
2021/10/29 16:24:55;;;;;;;46.47;27.73;;;10.20;99.90;;;;;;5007510;28;20052;-62
2021/10/29 16:27:21;;;;;;;51.53;29.50;;;10.10;99.90;;;;;;5010280;28;20783;-62
2021/10/29 16:29:49;;;;;;;56.63;33.20;;;10.00;99.90;;;;;;5006208;28;20128;-62
2021/10/29 16:32:18;;;;;;;56.30;33.90;;;10.00;99.90;;;;;;5003361;28;20046;-63
2021/10/29 16:34:43;;;;;;;56.42;31.60;;;9.90;99.90;;;;;;5005724;28;20424;-62
2021/10/29 16:37:09;;;;;;;49.15;30.20;;;9.90;99.90;;;;;;5005033;28;20578;-62
2021/10/29 16:39:34;;;;;;;43.60;27.52;;;9.80;99.90;;;;;;5005826;28;20033;-63
2021/10/29 16:42:00;;;;;;;47.72;28.08;;;9.70;99.90;;;;;;5005930;28;20688;-63
2021/10/29 16:44:25;;;;;;;48.25;27.75;;;9.70;99.90;;;;;;5006682;28;20636;-62
2021/10/29 16:46:51;;;;;;;44.70;27.25;;;9.70;99.90;;;;;;5012872;28;20072;-62
2021/10/29 16:49:17;;;;;;;42.83;26.48;;;9.60;99.90;;;;;;5014281;28;20030;-62
2021/10/29 16:51:42;;;;;;;40.47;25.73;;;9.60;99.90;;;;;;5008845;28;20044;-63
2021/10/29 16:54:09;;;;;;;44.95;28.05;;;9.50;99.90;;;;;;5004098;28;20108;-62